createdAt,value
2022-07-31T00:04:44.984Z,2.60
2022-07-31T00:09:53.571Z,2.40
2022-07-31T00:14:56.485Z,2.73
2022-07-31T00:19:59.665Z,2.77
2022-07-31T00:25:02.013Z,2.70
2022-07-31T00:30:05.282Z,2.90
2022-07-31T00:35:09.432Z,2.53
2022-07-31T00:40:16.341Z,2.53
2022-07-31T00:45:18.071Z,2.53
2022-07-31T00:50:25.358Z,2.77
2022-07-31T00:55:27.523Z,3.10
2022-07-31T01:00:29.786Z,2.87
2022-07-31T01:05:33.243Z,3.10
2022-07-31T01:10:43.444Z,3.27
2022-07-31T01:15:47.850Z,2.90
2022-07-31T01:20:54.466Z,2.90
2022-07-31T01:26:03.784Z,2.50
2022-07-31T01:31:26.230Z,3.13
2022-07-31T01:36:31.951Z,3.07
2022-07-31T01:41:38.086Z,3.23
2022-07-31T01:46:43.314Z,2.87
2022-07-31T01:51:48.258Z,2.63
2022-07-31T01:56:50.484Z,3.30
2022-07-31T02:01:54.932Z,3.20
2022-07-31T02:06:57.226Z,3.17
2022-07-31T02:12:00.377Z,3.40
2022-07-31T02:17:05.184Z,3.00
2022-07-31T02:22:07.857Z,3.43
2022-07-31T02:27:56.270Z,3.57
2022-07-31T02:32:38.188Z,3.27
2022-07-31T02:37:42.747Z,3.17
2022-07-31T02:42:46.869Z,3.50
2022-07-31T02:47:50.348Z,3.40
2022-07-31T02:52:52.717Z,3.27
2022-07-31T02:57:54.956Z,3.37
2022-07-31T03:02:58.434Z,3.30
2022-07-31T03:08:00.505Z,3.60
2022-07-31T03:13:03.515Z,3.57
2022-07-31T03:18:11.230Z,3.37
2022-07-31T03:23:14.611Z,3.00
2022-07-31T03:28:17.285Z,3.87
2022-07-31T03:33:20.754Z,4.03
2022-07-31T03:38:38.728Z,3.50
2022-07-31T03:43:47.998Z,3.13
2022-07-31T03:48:52.978Z,3.30
2022-07-31T03:53:55.358Z,3.43
2022-07-31T03:58:57.783Z,3.30
2022-07-31T04:04:02.594Z,3.10
2022-07-31T04:09:15.636Z,3.33
2022-07-31T04:14:21.021Z,3.50
2022-07-31T04:19:24.754Z,2.90
2022-07-31T04:24:26.989Z,3.60
2022-07-31T04:29:29.052Z,3.30
2022-07-31T04:34:32.573Z,3.27
2022-07-31T04:39:35.149Z,3.30
2022-07-31T04:44:37.230Z,3.50
2022-07-31T04:49:40.566Z,3.30
2022-07-31T04:54:42.601Z,4.07
2022-07-31T04:59:58.628Z,2.80
2022-07-31T05:05:05.331Z,2.80
2022-07-31T05:10:07.723Z,2.50
2022-07-31T05:15:10.670Z,2.45
2022-07-31T05:20:14.344Z,2.63
2022-07-31T05:25:16.549Z,2.97
2022-07-31T05:30:30.080Z,2.75
2022-07-31T05:35:34.087Z,2.38
2022-07-31T05:40:36.324Z,2.90
2022-07-31T05:45:38.407Z,2.72
2022-07-31T05:50:43.091Z,2.95
2022-07-31T05:55:46.057Z,2.33
2022-07-31T06:00:49.305Z,2.80
2022-07-31T06:05:52.765Z,2.80
2022-07-31T06:10:55.070Z,3.03
2022-07-31T06:15:57.380Z,2.70
2022-07-31T06:21:01.179Z,2.70
2022-07-31T06:26:03.403Z,2.53
2022-07-31T06:31:05.229Z,2.53
2022-07-31T06:36:08.573Z,3.03
2022-07-31T06:41:10.389Z,2.55
2022-07-31T06:46:13.332Z,2.92
2022-07-31T06:51:32.325Z,2.45
2022-07-31T06:56:35.352Z,2.40
2022-07-31T07:01:37.193Z,2.85
2022-07-31T07:06:40.299Z,2.28
2022-07-31T07:11:42.028Z,2.42
2022-07-31T07:16:44.096Z,2.63
2022-07-31T07:21:47.855Z,2.67
2022-07-31T07:26:50.153Z,2.80
2022-07-31T07:31:51.924Z,2.33
2022-07-31T07:36:55.079Z,2.78
2022-07-31T07:41:56.819Z,2.42
2022-07-31T07:46:58.922Z,2.80
2022-07-31T07:52:02.324Z,2.40
2022-07-31T07:57:04.175Z,2.72
2022-07-31T08:02:06.197Z,2.47
2022-07-31T08:07:10.149Z,2.22
2022-07-31T08:12:11.927Z,2.08
2022-07-31T08:17:14.060Z,2.58
2022-07-31T08:22:17.482Z,2.63
2022-07-31T08:27:21.424Z,2.50
2022-07-31T08:32:24.434Z,2.35
2022-07-31T08:37:51.849Z,2.45
2022-07-31T08:42:49.777Z,2.88
2022-07-31T08:47:52.780Z,2.72
2022-07-31T08:52:57.486Z,2.63
2022-07-31T08:57:59.392Z,2.08
2022-07-31T09:03:02.770Z,2.45
2022-07-31T09:08:08.429Z,2.40
2022-07-31T09:13:18.094Z,2.30
2022-07-31T09:21:00.434Z,2.78
2022-07-31T09:26:06.117Z,2.42
2022-07-31T09:31:09.770Z,2.47
2022-07-31T09:36:14.386Z,2.30
2022-07-31T09:41:56.812Z,2.42
2022-07-31T09:46:40.964Z,2.80
2022-07-31T09:51:46.559Z,2.60
2022-07-31T09:56:48.670Z,2.30
2022-07-31T10:01:50.965Z,2.97
2022-07-31T10:06:56.259Z,2.38
2022-07-31T10:12:00.648Z,2.58
2022-07-31T10:17:04.525Z,2.17
2022-07-31T10:22:12.177Z,2.63
2022-07-31T10:27:15.857Z,2.10
2022-07-31T10:32:18.588Z,2.28
2022-07-31T10:37:25.045Z,2.90
2022-07-31T10:42:36.244Z,2.80
2022-07-31T10:47:37.946Z,2.15
2022-07-31T10:52:41.381Z,2.70
2022-07-31T10:57:56.117Z,2.70
2022-07-31T11:02:59.560Z,2.30
2022-07-31T11:08:05.341Z,2.58
2022-07-31T11:13:09.080Z,2.33
2022-07-31T11:18:20.893Z,2.20
2022-07-31T11:23:30.673Z,2.28
2022-07-31T11:28:33.374Z,2.20
2022-07-31T11:33:41.667Z,1.80
2022-07-31T11:38:47.667Z,2.42
2022-07-31T11:43:51.457Z,1.60
2022-07-31T11:48:54.438Z,1.70
2022-07-31T11:53:59.971Z,2.33
2022-07-31T11:59:02.118Z,2.20
2022-07-31T12:04:04.749Z,1.90
2022-07-31T12:10:02.425Z,1.92
2022-07-31T12:14:37.316Z,2.13
2022-07-31T12:19:39.325Z,2.05
2022-07-31T12:24:43.158Z,2.03
2022-07-31T12:29:45.998Z,2.03
2022-07-31T12:34:48.268Z,1.88
2022-07-31T12:40:00.813Z,1.98
2022-07-31T12:45:20.160Z,1.90
2022-07-31T12:50:24.187Z,1.90
2022-07-31T12:55:27.915Z,1.42
2022-07-31T13:00:30.176Z,1.73
2022-07-31T13:05:32.025Z,1.65
2022-07-31T13:10:35.173Z,1.50
2022-07-31T13:15:36.893Z,1.75
2022-07-31T13:20:38.665Z,1.70
2022-07-31T13:25:41.951Z,1.50
2022-07-31T13:30:44.104Z,1.58
2022-07-31T13:35:45.869Z,1.60
2022-07-31T13:40:48.897Z,1.38
2022-07-31T13:45:50.638Z,1.50
2022-07-31T13:50:52.393Z,1.60
2022-07-31T13:55:55.986Z,1.50
2022-07-31T14:01:03.959Z,1.60
2022-07-31T14:06:09.365Z,1.65
2022-07-31T14:11:13.839Z,1.73
2022-07-31T14:16:16.839Z,1.40
2022-07-31T14:21:19.064Z,1.20
2022-07-31T14:26:22.156Z,1.38
2022-07-31T14:31:24.434Z,1.70
2022-07-31T14:36:26.578Z,1.48
2022-07-31T14:41:29.864Z,1.23
2022-07-31T14:46:32.014Z,1.35
2022-07-31T14:51:35.158Z,1.15
2022-07-31T14:57:00.898Z,1.50
2022-07-31T15:02:00.834Z,1.02
2022-07-31T15:07:32.272Z,1.25
2022-07-31T15:12:26.011Z,1.42
2022-07-31T15:17:28.202Z,1.20
2022-07-31T15:22:29.966Z,1.50
2022-07-31T15:27:33.210Z,1.10
2022-07-31T15:32:36.104Z,1.15
2022-07-31T15:37:39.932Z,1.25
2022-07-31T15:42:45.383Z,1.40
2022-07-31T15:47:49.181Z,1.15
2022-07-31T15:52:51.060Z,1.13
2022-07-31T15:57:54.506Z,1.08
2022-07-31T16:02:56.295Z,1.23
2022-07-31T16:08:28.875Z,1.17
2022-07-31T16:13:26.098Z,1.10
2022-07-31T16:18:28.380Z,1.20
2022-07-31T16:23:30.388Z,1.15
2022-07-31T16:28:33.622Z,1.38
2022-07-31T16:33:35.985Z,0.90
2022-07-31T16:38:38.097Z,1.00
2022-07-31T16:43:49.756Z,0.90
2022-07-31T16:48:53.523Z,0.90
2022-07-31T16:54:14.532Z,1.20
2022-07-31T16:59:18.932Z,0.95
2022-07-31T17:04:20.724Z,0.95
2022-07-31T17:09:22.850Z,0.90
2022-07-31T17:14:27.871Z,1.00
2022-07-31T17:19:41.682Z,1.80
2022-07-31T17:24:48.282Z,2.92
2022-07-31T17:29:51.601Z,1.63
2022-07-31T17:34:53.545Z,1.20
2022-07-31T17:39:57.826Z,1.10
2022-07-31T17:45:01.597Z,1.17
2022-07-31T17:50:03.946Z,1.27
2022-07-31T17:55:06.613Z,0.85
2022-07-31T18:00:10.832Z,1.00
2022-07-31T18:05:12.490Z,1.00
2022-07-31T18:10:14.277Z,1.02
2022-07-31T18:15:17.622Z,1.08
2022-07-31T18:20:20.099Z,1.05
2022-07-31T18:25:22.056Z,0.82
2022-07-31T18:30:30.533Z,1.73
2022-07-31T18:35:36.107Z,1.50
2022-07-31T18:40:38.211Z,1.13
2022-07-31T18:45:42.077Z,1.70
2022-07-31T18:51:01.368Z,1.63
2022-07-31T18:56:05.677Z,1.50
2022-07-31T19:01:08.899Z,1.58
2022-07-31T19:06:10.920Z,1.50
2022-07-31T19:11:12.649Z,0.98
2022-07-31T19:16:17.671Z,1.20
2022-07-31T19:21:41.084Z,1.20
2022-07-31T19:26:42.370Z,1.25
2022-07-31T19:31:46.115Z,1.65
2022-07-31T19:36:48.035Z,2.10
2022-07-31T19:42:12.231Z,1.48
2022-07-31T19:47:13.377Z,1.85
2022-07-31T19:52:15.097Z,1.88
2022-07-31T19:57:16.841Z,1.58
2022-07-31T20:02:19.899Z,2.30
2022-07-31T20:07:22.030Z,2.47
2022-07-31T20:12:24.146Z,2.25
2022-07-31T20:17:27.653Z,1.70
2022-07-31T20:22:29.892Z,2.45
2022-07-31T20:27:32.010Z,1.73
2022-07-31T20:32:35.521Z,1.90
2022-07-31T20:37:49.051Z,1.60
2022-07-31T20:42:51.246Z,1.65
2022-07-31T20:47:54.779Z,1.83
2022-07-31T20:52:56.520Z,2.20
2022-07-31T20:57:58.593Z,1.80
2022-07-31T21:03:02.950Z,1.30
2022-07-31T21:08:05.426Z,1.73
2022-07-31T21:13:08.173Z,1.45
2022-07-31T21:18:12.069Z,1.40
2022-07-31T21:23:13.825Z,1.30
2022-07-31T21:28:16.370Z,1.40
2022-07-31T21:33:20.342Z,1.65
2022-07-31T21:38:23.043Z,1.58
2022-07-31T21:43:25.717Z,1.35
2022-07-31T21:48:31.716Z,1.40
2022-07-31T21:53:34.164Z,1.67
2022-07-31T21:58:36.322Z,1.60
2022-07-31T22:03:39.952Z,1.98
2022-07-31T22:08:42.123Z,1.58
2022-07-31T22:13:44.184Z,1.63
2022-07-31T22:18:48.266Z,1.65
2022-07-31T22:23:50.779Z,2.38
2022-07-31T22:28:54.211Z,2.08
2022-07-31T22:33:57.844Z,1.83
2022-07-31T22:39:00.450Z,1.80
2022-07-31T22:44:11.415Z,2.45
2022-07-31T22:49:19.298Z,2.30
2022-07-31T22:54:21.401Z,2.28
2022-07-31T22:59:23.583Z,2.10
2022-07-31T23:04:27.553Z,3.13
2022-07-31T23:09:29.894Z,2.73
2022-07-31T23:14:32.274Z,2.93
2022-07-31T23:19:35.741Z,2.50
2022-07-31T23:24:37.892Z,3.20
2022-07-31T23:29:41.664Z,2.90
2022-07-31T23:34:45.269Z,2.70
2022-07-31T23:39:47.214Z,2.57
2022-07-31T23:44:49.233Z,2.80
2022-07-31T23:49:53.428Z,2.57
2022-07-31T23:54:55.486Z,2.73
2022-07-31T23:59:57.613Z,2.97
